createdAt,value
2022-08-24T00:01:32.034Z,100823.72
2022-08-24T00:04:06.558Z,100825.38
2022-08-24T00:06:40.254Z,100825.81
2022-08-24T00:09:11.262Z,100822.91
2022-08-24T00:11:39.919Z,100819.25
2022-08-24T00:14:12.465Z,100832.69
2022-08-24T00:16:42.779Z,100829.41
2022-08-24T00:19:16.350Z,100827.41
2022-08-24T00:21:55.306Z,100823.75
2022-08-24T00:24:34.027Z,100829.47
2022-08-24T00:27:04.781Z,100818.88
2022-08-24T00:29:36.599Z,100823.75
2022-08-24T00:32:09.239Z,100814.03
2022-08-24T00:34:36.950Z,100819.25
2022-08-24T00:37:05.008Z,100816.47
2022-08-24T00:39:32.829Z,100819.66
2022-08-24T00:42:03.097Z,100811.19
2022-08-24T00:44:35.918Z,100826.59
2022-08-24T00:47:16.765Z,100811.63
2022-08-24T00:49:51.057Z,100810.00
2022-08-24T00:52:25.856Z,100823.75
2022-08-24T00:54:58.701Z,100818.06
2022-08-24T00:57:37.016Z,100811.94
2022-08-24T01:00:14.791Z,100805.88
2022-08-24T01:02:51.412Z,100807.09
2022-08-24T01:05:29.883Z,100805.09
2022-08-24T01:08:06.654Z,100802.66
2022-08-24T01:10:46.777Z,100807.53
2022-08-24T01:13:24.411Z,100810.34
2022-08-24T01:15:54.618Z,100796.91
2022-08-24T01:18:46.867Z,100801.31
2022-08-24T01:21:35.332Z,100796.84
2022-08-24T01:24:14.194Z,100806.13
2022-08-24T01:26:49.965Z,100806.47
2022-08-24T01:29:27.717Z,100805.25
2022-08-24T01:32:03.417Z,100793.00
2022-08-24T01:34:36.133Z,100802.81
2022-08-24T01:37:05.137Z,100801.16
2022-08-24T01:39:43.421Z,100799.50
2022-08-24T01:42:14.402Z,100788.22
2022-08-24T01:44:51.066Z,100800.31
2022-08-24T01:47:27.762Z,100802.34
2022-08-24T01:50:06.417Z,100803.56
2022-08-24T01:53:03.993Z,100794.56
2022-08-24T01:55:34.929Z,100801.09
2022-08-24T01:58:09.426Z,100795.84
2022-08-24T02:00:43.493Z,100794.28
2022-08-24T02:03:16.121Z,100795.19
2022-08-24T02:05:49.630Z,100796.78
2022-08-24T02:08:19.269Z,100800.50
2022-08-24T02:10:56.719Z,100811.09
2022-08-24T02:13:31.973Z,100800.94
2022-08-24T02:16:05.744Z,100800.50
2022-08-24T02:18:41.985Z,100803.41
2022-08-24T02:21:16.939Z,100805.03
2022-08-24T02:23:57.835Z,100810.28
2022-08-24T02:26:31.776Z,100811.13
2022-08-24T02:29:05.844Z,100805.09
2022-08-24T02:31:37.232Z,100805.88
2022-08-24T02:34:08.234Z,100810.78
2022-08-24T02:36:38.939Z,100809.94
2022-08-24T02:39:14.907Z,100819.78
2022-08-24T02:41:49.404Z,100817.38
2022-08-24T02:44:20.265Z,100809.28
2022-08-24T02:46:48.988Z,100812.47
2022-08-24T02:49:26.249Z,100815.31
2022-08-24T02:51:59.960Z,100810.84
2022-08-24T02:54:32.902Z,100808.06
2022-08-24T02:57:03.351Z,100806.84
2022-08-24T02:59:37.464Z,100814.13
2022-08-24T03:02:09.876Z,100797.06
2022-08-24T03:04:43.169Z,100805.22
2022-08-24T03:07:23.312Z,100806.00
2022-08-24T03:09:51.498Z,100810.50
2022-08-24T03:12:21.642Z,100810.53
2022-08-24T03:14:52.458Z,100806.84
2022-08-24T03:17:24.070Z,100807.25
2022-08-24T03:19:57.230Z,100806.44
2022-08-24T03:22:25.101Z,100806.06
2022-08-24T03:25:01.238Z,100805.66
2022-08-24T03:27:35.067Z,100808.50
2022-08-24T03:30:12.849Z,100798.00
2022-08-24T03:32:46.336Z,100794.72
2022-08-24T03:35:19.461Z,100805.25
2022-08-24T03:37:53.371Z,100804.06
2022-08-24T03:40:26.301Z,100802.84
2022-08-24T03:43:00.627Z,100794.25
2022-08-24T03:45:29.607Z,100798.75
2022-08-24T03:48:05.418Z,100791.94
2022-08-24T03:50:37.573Z,100794.72
2022-08-24T03:53:08.471Z,100802.84
2022-08-24T03:55:50.432Z,100802.84
2022-08-24T03:58:24.780Z,100802.91
2022-08-24T04:00:56.213Z,100803.69
2022-08-24T04:03:28.270Z,100805.75
2022-08-24T04:06:01.343Z,100800.41
2022-08-24T04:08:32.789Z,100800.00
2022-08-24T04:11:09.700Z,100804.91
2022-08-24T04:13:41.486Z,100807.75
2022-08-24T04:16:15.141Z,100810.16
2022-08-24T04:18:49.254Z,100814.28
2022-08-24T04:21:22.638Z,100816.28
2022-08-24T04:23:57.640Z,100819.97
2022-08-24T04:26:45.089Z,100813.03
2022-08-24T04:29:26.180Z,100815.50
2022-08-24T04:32:08.581Z,100821.63
2022-08-24T04:34:39.691Z,100817.13
2022-08-24T04:37:27.041Z,100820.81
2022-08-24T04:40:32.413Z,100826.47
2022-08-24T04:43:06.418Z,100826.88
2022-08-24T04:45:51.658Z,100835.00
2022-08-24T04:48:25.059Z,100831.34
2022-08-24T04:50:55.656Z,100836.59
2022-08-24T04:53:29.201Z,100841.53
2022-08-24T04:56:01.918Z,100839.50
2022-08-24T04:58:37.551Z,100834.22
2022-08-24T05:01:18.002Z,100848.03
2022-08-24T05:03:49.226Z,100840.31
2022-08-24T05:06:23.110Z,100858.56
2022-08-24T05:08:52.716Z,100857.38
2022-08-24T05:11:23.137Z,100837.13
2022-08-24T05:13:56.100Z,100860.22
2022-08-24T05:16:30.529Z,100851.28
2022-08-24T05:19:07.700Z,100860.63
2022-08-24T05:21:42.907Z,100853.28
2022-08-24T05:24:13.452Z,100858.97
2022-08-24T05:26:45.589Z,100864.97
2022-08-24T05:29:21.528Z,100869.06
2022-08-24T05:31:54.246Z,100874.31
2022-08-24T05:34:24.617Z,100878.00
2022-08-24T05:36:55.859Z,100871.84
2022-08-24T05:39:56.193Z,100873.91
2022-08-24T05:42:30.449Z,100875.94
2022-08-24T05:45:05.912Z,100882.00
2022-08-24T05:47:36.763Z,100872.59
2022-08-24T05:50:12.861Z,100871.41
2022-08-24T05:52:42.818Z,100874.59
2022-08-24T05:55:15.961Z,100876.59
2022-08-24T05:57:53.810Z,100879.03
2022-08-24T06:00:32.846Z,100881.41
2022-08-24T06:03:14.565Z,100886.84
2022-08-24T06:05:56.412Z,100880.09
2022-08-24T06:08:30.637Z,100885.88
2022-08-24T06:11:10.952Z,100891.09
2022-08-24T06:13:53.713Z,100883.78
2022-08-24T06:16:32.811Z,100882.56
2022-08-24T06:19:14.281Z,100883.28
2022-08-24T06:21:51.864Z,100874.28
2022-08-24T06:24:44.622Z,100870.19
2022-08-24T06:27:23.998Z,100875.09
2022-08-24T06:30:03.847Z,100879.09
2022-08-24T06:33:09.533Z,100868.16
2022-08-24T06:35:49.662Z,100878.00
2022-08-24T06:38:26.591Z,100878.41
2022-08-24T06:41:06.056Z,100877.13
2022-08-24T06:43:41.718Z,100883.03
2022-08-24T06:46:31.998Z,100889.09
2022-08-24T06:49:12.410Z,100883.16
2022-08-24T06:51:50.739Z,100886.53
2022-08-24T06:54:28.614Z,100889.81
2022-08-24T06:57:04.004Z,100891.03
2022-08-24T06:59:36.234Z,100886.56
2022-08-24T07:02:24.828Z,100888.97
2022-08-24T07:04:57.034Z,100882.03
2022-08-24T07:07:48.785Z,100887.66
2022-08-24T07:10:24.087Z,100889.66
2022-08-24T07:13:06.866Z,100891.25
2022-08-24T07:15:53.431Z,100894.91
2022-08-24T07:18:29.213Z,100889.56
2022-08-24T07:21:03.936Z,100892.78
2022-08-24T07:23:46.447Z,100896.88
2022-08-24T07:26:28.248Z,100894.88
2022-08-24T07:29:06.756Z,100894.03
2022-08-24T07:31:49.118Z,100893.66
2022-08-24T07:34:44.212Z,100894.84
2022-08-24T07:37:20.466Z,100897.16
2022-08-24T07:39:53.292Z,100895.47
2022-08-24T07:42:31.111Z,100904.09
2022-08-24T07:45:10.236Z,100903.22
2022-08-24T07:47:55.365Z,100901.97
2022-08-24T07:50:50.154Z,100903.22
2022-08-24T07:53:37.895Z,100905.69
2022-08-24T07:56:22.851Z,100910.22
2022-08-24T07:58:56.681Z,100896.81
2022-08-24T08:01:36.593Z,100905.31
2022-08-24T08:04:09.906Z,100911.75
2022-08-24T08:06:46.117Z,100906.53
2022-08-24T08:09:20.478Z,100905.41
2022-08-24T08:11:52.839Z,100913.56
2022-08-24T08:14:26.587Z,100900.13
2022-08-24T08:16:55.233Z,100916.38
2022-08-24T08:19:23.743Z,100898.97
2022-08-24T08:22:12.077Z,100903.47
2022-08-24T08:25:08.073Z,100914.03
2022-08-24T08:30:22.468Z,100911.13
2022-08-24T08:32:58.494Z,100913.97
2022-08-24T08:35:36.483Z,100917.63
2022-08-24T08:38:07.852Z,100914.81
2022-08-24T08:40:58.286Z,100915.28
2022-08-24T08:44:07.051Z,100912.84
2022-08-24T08:47:00.609Z,100900.31
2022-08-24T08:49:51.320Z,100899.88
2022-08-24T08:52:43.294Z,100905.94
2022-08-24T08:55:59.968Z,100907.56
2022-08-24T08:58:59.557Z,100912.03
2022-08-24T09:02:09.458Z,100904.72
2022-08-24T09:05:13.809Z,100905.63
2022-08-24T09:08:20.797Z,100901.16
2022-08-24T09:11:10.431Z,100910.13
2022-08-24T09:14:26.647Z,100909.28
2022-08-24T09:17:12.956Z,100902.75
2022-08-24T09:20:12.420Z,100908.00
2022-08-24T09:23:05.884Z,100904.34
2022-08-24T09:25:46.986Z,100905.25
2022-08-24T09:28:26.778Z,100893.50
2022-08-24T09:31:05.138Z,100895.59
2022-08-24T09:33:44.362Z,100892.34
2022-08-24T09:36:32.279Z,100883.47
2022-08-24T09:39:39.428Z,100879.38
2022-08-24T09:42:25.927Z,100881.31
2022-08-24T09:45:26.744Z,100880.91
2022-08-24T09:48:33.056Z,100888.56
2022-08-24T09:51:22.654Z,100890.97
2022-08-24T09:54:00.583Z,100894.56
2022-08-24T09:57:12.201Z,100883.94
2022-08-24T09:59:50.062Z,100874.69
2022-08-24T10:02:46.406Z,100878.72
2022-08-24T10:05:36.806Z,100856.47
2022-08-24T10:08:17.316Z,100863.75
2022-08-24T10:10:48.445Z,100876.56
2022-08-24T10:13:38.248Z,100876.94
2022-08-24T10:16:35.023Z,100872.03
2022-08-24T10:20:00.430Z,100869.13
2022-08-24T10:22:58.632Z,100866.19
2022-08-24T10:25:38.254Z,100869.84
2022-08-24T10:28:34.561Z,100866.34
2022-08-24T10:31:13.358Z,100856.22
2022-08-24T10:34:25.968Z,100862.75
2022-08-24T10:37:06.004Z,100862.72
2022-08-24T10:40:04.536Z,100860.28
2022-08-24T10:43:26.186Z,100853.78
2022-08-24T10:46:26.017Z,100855.44
2022-08-24T10:49:34.049Z,100845.88
2022-08-24T10:52:34.048Z,100834.53
2022-08-24T10:55:25.058Z,100845.13
2022-08-24T10:58:11.236Z,100845.19
2022-08-24T11:00:45.228Z,100844.25
2022-08-24T11:03:27.782Z,100838.94
2022-08-24T11:06:00.257Z,100845.03
2022-08-24T11:08:34.161Z,100842.28
2022-08-24T11:11:08.120Z,100848.50
2022-08-24T11:13:38.081Z,100843.66
2022-08-24T11:16:12.005Z,100841.19
2022-08-24T11:19:37.442Z,100836.00
2022-08-24T11:22:27.639Z,100834.44
2022-08-24T11:25:02.464Z,100836.03
2022-08-24T11:27:48.570Z,100831.22
2022-08-24T11:30:22.278Z,100834.13
2022-08-24T11:33:11.882Z,100831.72
2022-08-24T11:35:45.858Z,100828.16
2022-08-24T11:38:27.522Z,100825.81
2022-08-24T11:40:57.947Z,100830.25
2022-08-24T11:43:40.397Z,100828.56
2022-08-24T11:46:31.958Z,100830.63
2022-08-24T11:49:08.844Z,100830.31
2022-08-24T11:51:58.457Z,100831.09
2022-08-24T11:54:38.442Z,100823.44
2022-08-24T11:57:22.400Z,100824.25
2022-08-24T12:00:01.695Z,100828.28
2022-08-24T12:03:02.843Z,100824.25
2022-08-24T12:06:05.637Z,100824.69
2022-08-24T12:08:38.927Z,100819.81
2022-08-24T12:11:07.604Z,100818.56
2022-08-24T12:13:56.439Z,100811.31
2022-08-24T12:16:56.472Z,100820.53
2022-08-24T12:19:34.190Z,100818.38
2022-08-24T12:22:09.643Z,100808.63
2022-08-24T12:24:55.138Z,100815.00
2022-08-24T12:27:32.192Z,100813.34
2022-08-24T12:30:10.662Z,100810.94
2022-08-24T12:33:04.904Z,100798.78
2022-08-24T12:35:42.766Z,100815.00
2022-08-24T12:38:16.199Z,100815.00
2022-08-24T12:41:19.133Z,100815.16
2022-08-24T12:44:12.067Z,100804.66
2022-08-24T12:46:52.000Z,100803.03
2022-08-24T12:49:50.037Z,100799.66
2022-08-24T12:53:13.584Z,100799.88
2022-08-24T12:56:07.235Z,100803.22
2022-08-24T12:59:02.565Z,100797.19
2022-08-24T13:01:50.430Z,100795.94
2022-08-24T13:04:39.824Z,100796.06
2022-08-24T13:07:18.070Z,100797.66
2022-08-24T13:09:55.378Z,100794.38
2022-08-24T13:13:18.807Z,100787.91
2022-08-24T13:16:08.649Z,100778.13
2022-08-24T13:19:08.156Z,100789.84
2022-08-24T13:21:48.169Z,100785.91
2022-08-24T13:24:36.136Z,100787.53
2022-08-24T13:27:19.585Z,100774.94
2022-08-24T13:30:10.249Z,100781.13
2022-08-24T13:32:52.190Z,100770.09
2022-08-24T13:36:00.692Z,100768.09
2022-08-24T13:38:40.927Z,100767.69
2022-08-24T13:41:26.978Z,100772.97
2022-08-24T13:44:13.111Z,100781.09
2022-08-24T13:46:48.870Z,100776.28
2022-08-24T13:49:44.067Z,100773.03
2022-08-24T13:52:37.519Z,100768.81
2022-08-24T13:55:31.105Z,100774.22
2022-08-24T13:58:11.289Z,100776.88
2022-08-24T14:00:58.553Z,100764.41
2022-08-24T14:03:56.603Z,100766.13
2022-08-24T14:06:38.297Z,100778.25
2022-08-24T14:09:39.389Z,100770.50
2022-08-24T14:12:43.854Z,100755.16
2022-08-24T14:16:28.766Z,100765.72
2022-08-24T14:19:55.079Z,100765.59
2022-08-24T14:22:44.430Z,100758.19
2022-08-24T14:25:27.260Z,100755.00
2022-08-24T14:28:06.570Z,100755.34
2022-08-24T14:30:44.868Z,100755.69
2022-08-24T14:33:31.086Z,100761.31
2022-08-24T14:36:15.663Z,100763.84
2022-08-24T14:39:20.979Z,100759.91
2022-08-24T14:42:45.024Z,100760.06
2022-08-24T14:45:42.184Z,100760.03
2022-08-24T14:48:25.123Z,100768.63
2022-08-24T14:51:08.480Z,100743.63
2022-08-24T14:53:57.154Z,100755.31
2022-08-24T14:57:02.902Z,100758.63
2022-08-24T14:59:55.301Z,100749.72
2022-08-24T15:02:44.979Z,100752.69
2022-08-24T15:05:24.113Z,100761.63
2022-08-24T15:08:00.255Z,100754.00
2022-08-24T15:10:41.721Z,100758.47
2022-08-24T15:13:38.966Z,100761.38
2022-08-24T15:16:23.625Z,100761.81
2022-08-24T15:19:05.847Z,100759.00
2022-08-24T15:21:52.224Z,100757.81
2022-08-24T15:24:45.428Z,100753.69
2022-08-24T15:27:35.538Z,100755.47
2022-08-24T15:30:20.670Z,100742.63
2022-08-24T15:33:14.973Z,100756.34
2022-08-24T15:35:52.022Z,100748.94
2022-08-24T15:38:30.582Z,100748.47
2022-08-24T15:41:13.187Z,100755.38
2022-08-24T15:43:47.268Z,100751.00
2022-08-24T15:46:24.389Z,100753.16
2022-08-24T15:49:09.056Z,100747.13
2022-08-24T15:51:56.072Z,100754.06
2022-08-24T15:54:24.995Z,100760.56
2022-08-24T15:57:07.631Z,100755.28
2022-08-24T15:59:41.567Z,100758.97
2022-08-24T16:02:29.319Z,100753.69
2022-08-24T16:05:25.615Z,100747.63
2022-08-24T16:08:11.839Z,100748.50
2022-08-24T16:10:52.644Z,100749.38
2022-08-24T16:13:31.151Z,100739.69
2022-08-24T16:16:17.713Z,100747.34
2022-08-24T16:18:53.247Z,100753.03
2022-08-24T16:21:39.049Z,100748.16
2022-08-24T16:24:29.014Z,100755.00
2022-08-24T16:27:14.217Z,100758.22
2022-08-24T16:29:45.093Z,100762.28
2022-08-24T16:32:30.248Z,100755.00
2022-08-24T16:35:08.644Z,100750.50
2022-08-24T16:37:42.155Z,100759.81
2022-08-24T16:40:14.340Z,100756.16
2022-08-24T16:42:45.382Z,100753.53
2022-08-24T16:45:18.475Z,100750.50
2022-08-24T16:47:50.406Z,100740.16
2022-08-24T16:50:27.333Z,100742.03
2022-08-24T16:52:57.988Z,100751.63
2022-08-24T16:55:29.148Z,100747.88
2022-08-24T16:58:02.119Z,100742.56
2022-08-24T17:00:30.492Z,100740.84
2022-08-24T17:03:00.857Z,100744.47
2022-08-24T17:05:31.547Z,100755.75
2022-08-24T17:08:02.915Z,100753.69
2022-08-24T17:10:37.953Z,100749.19
2022-08-24T17:13:08.766Z,100751.19
2022-08-24T17:15:36.520Z,100757.66
2022-08-24T17:18:12.178Z,100758.03
2022-08-24T17:20:42.641Z,100751.13
2022-08-24T17:23:11.279Z,100758.41
2022-08-24T17:25:42.380Z,100756.31
2022-08-24T17:28:16.437Z,100764.06
2022-08-24T17:30:45.306Z,100757.97
2022-08-24T17:33:15.317Z,100767.28
2022-08-24T17:35:43.083Z,100758.31
2022-08-24T17:38:10.858Z,100759.13
2022-08-24T17:40:41.496Z,100756.31
2022-08-24T17:43:12.340Z,100769.66
2022-08-24T17:45:50.570Z,100761.94
2022-08-24T17:48:25.774Z,100766.41
2022-08-24T17:50:54.259Z,100765.94
2022-08-24T17:53:22.121Z,100768.00
2022-08-24T17:55:49.831Z,100767.19
2022-08-24T17:58:26.968Z,100770.44
2022-08-24T18:00:54.800Z,100767.59
2022-08-24T18:03:26.010Z,100773.28
2022-08-24T18:05:56.536Z,100772.03
2022-08-24T18:08:26.164Z,100771.59
2022-08-24T18:10:56.470Z,100772.00
2022-08-24T18:13:24.063Z,100774.84
2022-08-24T18:15:57.514Z,100775.31
2022-08-24T18:18:25.484Z,100779.31
2022-08-24T18:21:01.873Z,100778.09
2022-08-24T18:23:32.824Z,100771.59
2022-08-24T18:26:08.396Z,100787.81
2022-08-24T18:28:42.432Z,100790.66
2022-08-24T18:31:10.458Z,100783.72
2022-08-24T18:33:43.154Z,100791.84
2022-08-24T18:36:15.193Z,100801.59
2022-08-24T18:38:43.754Z,100803.66
2022-08-24T18:41:16.207Z,100795.16
2022-08-24T18:43:44.419Z,100799.56
2022-08-24T18:46:17.936Z,100796.38
2022-08-24T18:48:51.048Z,100807.69
2022-08-24T18:51:20.358Z,100809.28
2022-08-24T18:53:50.725Z,100808.06
2022-08-24T18:56:22.197Z,100808.50
2022-08-24T18:58:58.157Z,100805.66
2022-08-24T19:01:50.305Z,100811.69
2022-08-24T19:04:20.098Z,100818.63
2022-08-24T19:06:53.875Z,100824.75
2022-08-24T19:09:30.769Z,100831.63
2022-08-24T19:12:02.478Z,100818.69
2022-08-24T19:14:36.757Z,100832.88
2022-08-24T19:17:09.103Z,100834.91
2022-08-24T19:19:39.993Z,100824.81
2022-08-24T19:22:10.557Z,100837.75
2022-08-24T19:24:39.454Z,100840.16
2022-08-24T19:27:10.518Z,100850.31
2022-08-24T19:29:56.767Z,100848.34
2022-08-24T19:32:29.735Z,100851.97
2022-08-24T19:35:00.277Z,100853.22
2022-08-24T19:37:30.793Z,100843.09
2022-08-24T19:40:00.103Z,100855.63
2022-08-24T19:42:28.840Z,100857.66
2022-08-24T19:45:18.676Z,100857.66
2022-08-24T19:47:46.907Z,100864.59
2022-08-24T19:50:21.244Z,100860.53
2022-08-24T19:52:52.093Z,100860.94
2022-08-24T19:55:22.500Z,100857.31
2022-08-24T19:58:05.765Z,100870.28
2022-08-24T20:01:02.571Z,100876.34
2022-08-24T20:03:35.464Z,100875.94
2022-08-24T20:06:05.863Z,100873.50
2022-08-24T20:08:33.581Z,100868.72
2022-08-24T20:11:04.236Z,100882.03
2022-08-24T20:13:31.834Z,100883.69
2022-08-24T20:16:00.101Z,100882.84
2022-08-24T20:18:34.153Z,100881.63
2022-08-24T20:21:03.139Z,100884.47
2022-08-24T20:23:36.453Z,100876.75
2022-08-24T20:26:05.406Z,100873.91
2022-08-24T20:28:42.765Z,100869.44
2022-08-24T20:31:14.392Z,100864.59
2022-08-24T20:33:48.769Z,100879.97
2022-08-24T20:36:27.321Z,100872.75
2022-08-24T20:38:57.879Z,100882.44
2022-08-24T20:41:30.722Z,100881.19
2022-08-24T20:44:02.225Z,100886.09
2022-08-24T20:46:33.087Z,100879.59
2022-08-24T20:49:01.637Z,100879.59
2022-08-24T20:51:29.844Z,100874.75
2022-08-24T20:53:59.984Z,100885.69
2022-08-24T20:56:39.544Z,100879.97
2022-08-24T20:59:09.924Z,100881.59
2022-08-24T21:01:39.098Z,100883.25
2022-08-24T21:04:07.262Z,100887.31
2022-08-24T21:06:43.131Z,100889.31
2022-08-24T21:09:16.874Z,100884.78
2022-08-24T21:11:46.373Z,100894.97
2022-08-24T21:14:19.433Z,100899.41
2022-08-24T21:16:47.826Z,100892.88
2022-08-24T21:19:17.687Z,100888.88
2022-08-24T21:21:51.190Z,100905.88
2022-08-24T21:24:18.588Z,100898.56
2022-08-24T21:26:49.262Z,100900.56
2022-08-24T21:29:16.952Z,100903.41
2022-08-24T21:32:07.672Z,100913.16
2022-08-24T21:34:41.775Z,100905.81
2022-08-24T21:37:14.099Z,100913.94
2022-08-24T21:39:47.015Z,100910.66
2022-08-24T21:42:17.015Z,100905.81
2022-08-24T21:44:47.877Z,100903.81
2022-08-24T21:47:18.202Z,100912.28
2022-08-24T21:49:45.771Z,100908.66
2022-08-24T21:52:15.564Z,100906.22
2022-08-24T21:54:47.950Z,100902.50
2022-08-24T21:57:20.967Z,100909.09
2022-08-24T21:59:51.732Z,100909.06
2022-08-24T22:02:20.558Z,100906.66
2022-08-24T22:04:55.990Z,100906.25
2022-08-24T22:07:27.869Z,100903.88
2022-08-24T22:09:59.091Z,100904.69
2022-08-24T22:12:26.782Z,100902.72
2022-08-24T22:14:55.233Z,100900.22
2022-08-24T22:17:23.064Z,100899.41
2022-08-24T22:19:50.772Z,100895.78
2022-08-24T22:22:23.841Z,100903.13
2022-08-24T22:24:51.767Z,100890.94
2022-08-24T22:27:25.011Z,100901.50
2022-08-24T22:29:53.063Z,100890.53
2022-08-24T22:32:24.404Z,100894.22
2022-08-24T22:34:55.735Z,100892.16
2022-08-24T22:37:24.705Z,100894.63
2022-08-24T22:39:55.059Z,100889.78
2022-08-24T22:42:25.517Z,100897.06
2022-08-24T22:44:53.223Z,100893.38
2022-08-24T22:47:25.080Z,100896.66
2022-08-24T22:49:55.378Z,100893.81
2022-08-24T22:52:23.241Z,100892.56
2022-08-24T22:55:05.716Z,100896.66
2022-08-24T22:57:33.876Z,100897.91
2022-08-24T23:00:10.103Z,100898.28
2022-08-24T23:02:42.468Z,100896.72
2022-08-24T23:05:13.459Z,100904.41
2022-08-24T23:07:44.065Z,100907.66
2022-08-24T23:10:15.001Z,100906.44
2022-08-24T23:12:43.143Z,100897.06
2022-08-24T23:15:14.783Z,100893.06
2022-08-24T23:17:48.253Z,100885.78
2022-08-24T23:20:17.142Z,100891.81
2022-08-24T23:22:49.971Z,100892.22
2022-08-24T23:25:22.591Z,100883.38
2022-08-24T23:27:50.347Z,100893.91
2022-08-24T23:30:26.794Z,100877.69
2022-08-24T23:32:54.437Z,100885.75
2022-08-24T23:35:21.984Z,100880.91
2022-08-24T23:37:51.117Z,100883.38
2022-08-24T23:40:21.803Z,100871.19
2022-08-24T23:42:55.615Z,100877.69
2022-08-24T23:45:28.037Z,100880.91
2022-08-24T23:47:57.304Z,100880.47
2022-08-24T23:50:26.094Z,100877.63
2022-08-24T23:52:59.581Z,100876.41
2022-08-24T23:55:30.125Z,100867.94
2022-08-24T23:58:00.663Z,100874.00
